Time;durP1;ratioP1;P1;durP2;ratioP2;P2;SDS_P1;SDS_P2;PMS_P1;PMS_P2;Temp;Humidity;BMP_temperature;BMP_pressure;BME280_temperature;BME280_humidity;BME280_pressure;Samples;Min_cycle;Max_cycle;Signal;HPM_P1;HPM_P2
2022/04/03 00:38:35;;;;;;;9.55;4.68;;;;;;;4.53;51.55;101559.50;4852839;28;119631;-91
2022/04/03 00:41:07;;;;;;;8.05;4.78;;;;;;;4.73;52.04;101596.00;4826322;28;121641;-91
2022/04/03 00:43:33;;;;;;;13.27;7.18;;;;;;;4.35;51.69;101540.47;4844600;28;118541;-91
2022/04/03 00:46:03;;;;;;;11.18;6.50;;;;;;;4.08;51.90;101499.31;4823873;28;121633;-90
2022/04/03 00:48:31;;;;;;;11.75;6.05;;;;;;;4.49;52.04;101572.28;4819395;28;118482;-91
2022/04/03 00:50:57;;;;;;;7.95;5.18;;;;;;;4.35;52.25;101534.25;4810599;28;120707;-91
2022/04/03 00:53:23;;;;;;;6.82;5.20;;;;;;;4.37;52.10;101529.22;4808671;29;121545;-91
2022/04/03 00:55:52;;;;;;;10.07;5.20;;;;;;;4.46;51.75;101548.59;4803045;29;118544;-92
2022/04/03 00:58:18;;;;;;;8.43;4.80;;;;;;;4.06;51.75;101493.47;4810838;29;120462;-93
2022/04/03 01:00:43;;;;;;;6.80;4.72;;;;;;;4.37;51.33;101540.06;4824276;29;120255;-90
2022/04/03 01:03:09;;;;;;;8.95;5.45;;;;;;;3.94;51.88;101485.69;4809578;29;118405;-89
2022/04/03 01:05:36;;;;;;;9.95;5.07;;;;;;;4.11;51.52;101517.53;4826479;29;120740;-91
2022/04/03 01:08:03;;;;;;;8.30;5.30;;;;;;;4.17;51.36;101521.41;4825348;29;118368;-91
2022/04/03 01:10:29;;;;;;;9.98;5.05;;;;;;;4.13;52.08;101517.91;4824744;29;120504;-91
2022/04/03 01:33:59;;;;;;;9.25;5.00;;;;;;;3.55;51.42;101472.00;4876767;28;121224;-91
2022/04/03 01:36:25;;;;;;;8.52;4.80;;;;;;;4.05;51.92;101543.50;4861627;28;122650;-92
2022/04/03 01:38:51;;;;;;;9.77;5.40;;;;;;;3.90;51.62;101529.13;4846182;28;118433;-90
2022/04/03 01:41:16;;;;;;;9.85;5.10;;;;;;;3.42;51.90;101449.09;4849628;28;120467;-91
2022/04/03 01:43:42;;;;;;;7.65;4.90;;;;;;;3.74;51.89;101493.38;4880080;28;120058;-90
2022/04/03 01:46:08;;;;;;;8.85;5.13;;;;;;;3.89;52.27;101524.84;4845303;28;118364;-91
2022/04/03 01:48:34;;;;;;;8.35;5.10;;;;;;;3.47;52.06;101452.22;4833070;28;120664;-91
2022/04/03 01:50:59;;;;;;;6.60;4.63;;;;;;;3.73;52.27;101482.91;4863999;28;121135;-91
2022/04/03 01:53:28;;;;;;;7.82;4.72;;;;;;;3.49;52.76;101451.84;4883390;28;118262;-91
2022/04/03 01:56:05;;;;;;;9.98;5.28;;;;;;;3.98;52.98;101533.38;4829566;29;122720;-91
2022/04/03 01:58:33;;;;;;;8.57;4.85;;;;;;;3.68;53.10;101467.78;4861940;28;118335;-92
2022/04/03 02:01:00;;;;;;;9.30;4.32;;;;;;;3.78;53.13;101487.97;4845607;28;120504;-91
2022/04/03 02:03:29;;;;;;;8.88;4.93;;;;;;;3.99;53.69;101507.78;4849902;28;120324;-92
2022/04/03 02:05:54;;;;;;;8.27;4.53;;;;;;;3.58;53.80;101430.56;4863732;28;118682;-91
2022/04/03 02:08:20;;;;;;;6.88;4.03;;;;;;;3.74;53.63;101441.81;4864633;28;119229;-92
2022/04/03 02:10:46;;;;;;;9.45;4.40;;;;;;;3.76;53.50;101436.00;4855383;28;121486;-93
2022/04/03 02:13:12;;;;;;;7.38;4.38;;;;;;;4.13;53.56;101487.28;4852600;28;118793;-91
2022/04/03 02:15:38;;;;;;;6.72;4.60;;;;;;;4.19;53.79;101480.28;4831024;28;121522;-92
2022/04/03 02:18:05;;;;;;;8.52;4.45;;;;;;;4.08;53.86;101461.28;4857968;28;118476;-91
2022/04/03 02:20:31;;;;;;;7.25;4.22;;;;;;;3.87;54.10;101423.25;4848353;28;120723;-91
2022/04/03 02:22:58;;;;;;;8.48;4.57;;;;;;;4.32;54.50;101484.97;4871398;28;120387;-92
2022/04/03 02:25:25;;;;;;;6.05;4.30;;;;;;;3.99;54.17;101415.50;4842091;28;118760;-92
2022/04/03 02:27:56;;;;;;;8.57;4.32;;;;;;;4.04;54.60;101424.44;4856715;28;120948;-90
2022/04/03 02:30:26;;;;;;;7.10;4.38;;;;;;;4.03;54.55;101410.09;4854001;28;120310;-91
2022/04/03 02:32:56;;;;;;;5.90;4.07;;;;;;;4.40;54.67;101464.00;4863103;28;118637;-91
2022/04/03 02:35:22;;;;;;;6.72;4.05;;;;;;;4.54;54.40;101482.25;4834323;28;120620;-91
2022/04/03 02:37:48;;;;;;;7.60;4.15;;;;;;;3.96;54.19;101394.56;4849731;28;118352;-91
2022/04/03 02:40:20;;;;;;;7.93;4.10;;;;;;;4.37;54.29;101455.88;4843853;28;120851;-93
2022/04/03 02:42:48;;;;;;;5.93;4.03;;;;;;;4.06;54.87;101417.47;4837045;28;122046;-91
2022/04/03 02:45:17;;;;;;;7.78;4.80;;;;;;;4.06;55.01;101406.59;4822046;29;118482;-91
2022/04/03 02:47:54;;;;;;;6.55;3.92;;;;;;;4.55;54.81;101476.44;4835519;28;120731;-92
2022/04/03 02:50:22;;;;;;;10.60;4.28;;;;;;;4.59;54.68;101479.91;4860132;28;120038;-89
2022/04/03 02:53:26;;;;;;;8.00;4.57;;;;;;;4.18;54.69;101419.78;4846705;28;119219;-93
2022/04/03 02:55:52;;;;;;;4.55;3.33;;;;;;;4.23;54.46;101427.53;4838935;28;120530;-93
2022/04/03 02:58:18;;;;;;;7.18;4.40;;;;;;;4.71;54.58;101495.03;4851354;28;121202;-92
2022/04/03 03:00:43;;;;;;;8.25;4.20;;;;;;;4.19;54.67;101404.25;4844710;29;120265;-93
2022/04/03 03:03:09;;;;;;;6.55;4.20;;;;;;;4.42;55.31;101423.66;4831927;28;121539;-92
2022/04/03 03:05:35;;;;;;;10.20;4.10;;;;;;;4.59;55.51;101441.09;4857851;28;118416;-92
2022/04/03 03:08:01;;;;;;;7.53;4.00;;;;;;;4.27;54.92;101387.59;4851217;28;121777;-92
2022/04/03 03:10:29;;;;;;;8.85;3.80;;;;;;;4.39;55.00;101402.69;4844886;29;121911;-92
2022/04/03 03:12:55;;;;;;;8.73;3.90;;;;;;;4.31;54.74;101390.31;4861286;28;118524;-92
2022/04/03 03:15:24;;;;;;;7.35;3.63;;;;;;;4.29;55.25;101379.06;4836672;28;120207;-91
2022/04/03 03:17:50;;;;;;;6.72;4.15;;;;;;;4.27;55.39;101379.44;4839744;28;120546;-93
2022/04/03 03:20:16;;;;;;;12.15;4.30;;;;;;;4.34;54.77;101380.59;4850469;28;119126;-93
2022/04/03 03:22:42;;;;;;;5.80;3.90;;;;;;;4.58;55.22;101415.09;4817136;28;121215;-93
2022/04/03 03:25:08;;;;;;;7.28;4.15;;;;;;;4.32;55.00;101376.31;4847631;28;120162;-92
2022/04/03 03:27:36;;;;;;;5.32;3.47;;;;;;;4.27;55.36;101357.72;4832050;28;120193;-94
2022/04/03 03:30:03;;;;;;;6.78;3.63;;;;;;;4.30;55.18;101361.59;4829287;29;121652;-93
2022/04/03 03:32:29;;;;;;;7.53;4.05;;;;;;;4.31;55.10;101363.13;4847909;28;118476;-93
2022/04/03 03:34:58;;;;;;;5.53;3.33;;;;;;;4.35;54.89;101363.91;4844292;28;120759;-93
2022/04/03 03:37:23;;;;;;;5.97;3.83;;;;;;;4.60;54.90;101410.03;4847083;28;121736;-93
2022/04/03 03:39:53;;;;;;;6.45;3.60;;;;;;;4.72;55.15;101430.59;4843834;29;118530;-93
2022/04/03 08:10:17;;;;;;;8.88;2.10;;;;;;;10.66;51.35;101427.75;5086028;23;121362;-90
2022/04/03 08:12:45;;;;;;;8.02;2.05;;;;;;;10.51;50.50;101412.84;4814425;28;118461;-89
2022/04/03 08:15:12;;;;;;;6.68;1.98;;;;;;;10.31;49.78;101388.28;4813084;28;121834;-91
2022/04/03 08:17:44;;;;;;;8.00;1.80;;;;;;;10.16;49.52;101361.19;4809960;28;122952;-89
2022/04/03 08:20:16;;;;;;;7.25;1.55;;;;;;;10.39;49.11;101400.59;4816167;28;118542;-90
2022/04/03 08:22:45;;;;;;;6.95;1.50;;;;;;;10.64;49.29;101438.34;4821479;28;121336;-90
2022/04/03 08:28:16;;;;;;;7.95;1.52;;;;;;;10.50;49.83;101416.78;4967967;23;120731;-91
2022/04/03 08:30:44;;;;;;;7.60;1.85;;;;;;;10.75;49.48;101436.09;4828827;28;120393;-91
2022/04/03 08:33:12;;;;;;;6.65;1.55;;;;;;;10.83;48.88;101433.94;4824891;28;119401;-90
2022/04/03 08:35:48;;;;;;;7.67;1.50;;;;;;;10.76;49.27;101426.66;4812412;28;122079;-91
2022/04/03 08:38:14;;;;;;;6.07;1.55;;;;;;;10.38;48.97;101355.94;4822957;28;121248;-90
2022/04/03 08:40:43;;;;;;;8.50;2.33;;;;;;;10.49;49.98;101366.66;4808590;28;118473;-91
2022/04/03 08:43:12;;;;;;;8.88;1.88;;;;;;;11.01;49.53;101420.50;4807649;28;121608;-91
2022/04/03 08:45:42;;;;;;;9.32;1.77;;;;;;;10.86;48.84;101378.94;4808966;28;121922;-91
2022/04/03 08:48:09;;;;;;;7.32;1.50;;;;;;;11.21;48.66;101417.59;4818637;28;121093;-90
2022/04/03 08:50:37;;;;;;;6.50;1.58;;;;;;;10.99;47.50;101382.50;4826174;28;121738;-91
2022/04/03 08:53:06;;;;;;;6.97;1.90;;;;;;;11.19;47.98;101406.28;4808509;28;122450;-91
2022/04/03 08:55:44;;;;;;;4.93;1.33;;;;;;;11.09;48.00;101388.88;4808528;28;121781;-90
2022/04/03 08:58:16;;;;;;;5.28;1.27;;;;;;;11.05;47.69;101361.53;4821635;28;121372;-90
2022/04/03 09:00:42;;;;;;;9.93;1.80;;;;;;;11.22;46.95;101381.44;4808249;28;119302;-93
2022/04/03 09:03:13;;;;;;;4.68;1.40;;;;;;;11.30;47.52;101382.75;4809761;28;121670;-90
2022/04/03 09:05:43;;;;;;;7.68;1.67;;;;;;;11.35;47.85;101431.66;4807374;28;122980;-91
2022/04/03 09:08:10;;;;;;;8.85;1.55;;;;;;;11.12;48.79;101464.91;4808784;28;119453;-91
2022/04/03 09:10:41;;;;;;;8.07;1.60;;;;;;;10.25;49.93;101399.00;4829638;28;120362;-90
2022/04/03 09:13:24;;;;;;;7.30;1.52;;;;;;;10.06;51.59;101421.78;4829084;28;121495;-89
2022/04/03 09:21:47;;;;;;;7.40;1.90;;;;;;;9.74;55.33;101428.78;5712668;23;120564;31
2022/04/03 10:21:51;;;;;;;4.88;1.40;;;;;;;11.15;55.10;101367.16;1118084;23;120954;-89
2022/04/03 10:24:27;;;;;;;4.22;1.35;;;;;;;11.06;54.35;101365.03;4801874;28;121930;-90
2022/04/03 10:50:02;;;;;;;5.80;1.40;;;;;;;11.58;54.37;101326.16;4003031;23;123349;-90
2022/04/03 10:52:37;;;;;;;4.78;1.48;;;;;;;11.53;52.52;101310.25;4806882;28;119620;-90
2022/04/03 10:55:25;;;;;;;4.60;1.35;;;;;;;11.75;53.46;101328.78;4807403;28;121252;-90
2022/04/03 10:58:04;;;;;;;4.53;1.17;;;;;;;11.64;51.97;101318.16;4821172;28;123070;-91
2022/04/03 11:00:34;;;;;;;7.65;1.20;;;;;;;11.74;51.21;101327.25;4825683;28;119625;-89
2022/04/03 11:03:21;;;;;;;4.47;1.52;;;;;;;11.75;50.42;101320.53;4803694;28;121949;-89
2022/04/03 11:05:47;;;;;;;6.85;1.35;;;;;;;11.82;49.67;101334.84;4821840;28;119491;-91
2022/04/03 11:08:13;;;;;;;7.93;1.40;;;;;;;11.90;50.59;101327.16;4821727;28;122458;-90
2022/04/03 11:10:55;;;;;;;5.95;1.20;;;;;;;11.52;50.08;101294.97;4804758;28;121772;-90
2022/04/03 11:13:38;;;;;;;5.18;1.30;;;;;;;11.64;51.47;101307.94;4821770;28;119934;-92
2022/04/03 11:16:06;;;;;;;6.35;1.40;;;;;;;11.74;51.18;101321.75;4837101;28;122317;-90
2022/04/03 11:18:35;;;;;;;5.40;1.20;;;;;;;11.80;50.85;101325.50;4806632;28;122916;-91
2022/04/03 11:21:06;;;;;;;9.20;1.55;;;;;;;11.81;51.09;101335.28;4803647;28;120208;-92
2022/04/03 11:23:44;;;;;;;3.33;1.30;;;;;;;11.22;52.46;101271.59;4811042;28;122817;-91
2022/04/03 11:26:15;;;;;;;5.28;1.33;;;;;;;11.47;52.09;101320.25;4805441;28;121057;-90
2022/04/03 11:28:45;;;;;;;3.63;1.38;;;;;;;11.02;52.90;101258.09;4837359;28;122144;-91
2022/04/03 11:31:16;;;;;;;4.35;1.48;;;;;;;11.16;53.53;101295.34;4805789;28;121673;-90
2022/04/03 11:33:42;;;;;;;6.03;1.30;;;;;;;11.08;54.66;101289.28;4820566;28;119809;-90
2022/04/03 11:36:24;;;;;;;7.28;1.40;;;;;;;11.23;53.62;101288.84;4822190;28;122054;-90
2022/04/03 11:38:51;;;;;;;3.50;0.90;;;;;;;11.12;54.30;101245.25;4804792;28;122975;-90
2022/04/03 11:41:28;;;;;;;2.03;0.90;;;;;;;11.29;54.00;101229.41;4805419;28;119648;-91
2022/04/03 11:44:15;;;;;;;4.68;1.10;;;;;;;11.74;53.30;101286.03;4825393;28;122367;-92
2022/04/03 11:46:46;;;;;;;4.22;1.17;;;;;;;11.47;53.89;101228.84;4805564;28;119460;-91
2022/04/03 11:49:15;;;;;;;5.75;1.23;;;;;;;11.71;54.33;101251.19;4819489;28;120775;-92
2022/04/03 11:51:49;;;;;;;5.32;1.13;;;;;;;11.73;53.10;101246.03;4820051;28;122762;-91
2022/04/03 11:54:17;;;;;;;4.47;1.30;;;;;;;12.15;52.49;101291.31;4804478;28;120149;-92
2022/04/03 11:56:46;;;;;;;4.75;1.17;;;;;;;12.02;52.62;101254.09;4820082;28;121335;-90
2022/04/03 11:59:13;;;;;;;6.68;1.20;;;;;;;12.06;52.91;101250.00;4803574;28;121962;-91
2022/04/03 12:01:50;;;;;;;4.72;1.40;;;;;;;12.28;51.84;101272.78;4821265;28;119921;-93
2022/04/03 12:04:22;;;;;;;6.05;1.50;;;;;;;12.24;51.63;101244.63;4822587;28;119604;-90
2022/04/03 12:06:58;;;;;;;5.35;1.42;;;;;;;12.31;50.69;101243.63;4824461;28;122656;-94
2022/04/03 12:09:31;;;;;;;5.53;1.40;;;;;;;12.11;51.45;101208.19;4837384;28;121965;-93
2022/04/03 12:12:01;;;;;;;6.43;1.40;;;;;;;12.28;51.70;101220.50;4820083;28;123239;-92
2022/04/03 12:14:38;;;;;;;7.97;1.60;;;;;;;12.59;51.23;101267.34;4821864;28;121452;-91
2022/04/03 12:17:18;;;;;;;8.30;1.90;;;;;;;12.23;51.44;101199.09;4806701;28;122141;-90
2022/04/03 12:19:51;;;;;;;5.00;2.08;;;;;;;12.51;50.76;101266.06;4818685;28;123216;-93
2022/04/03 12:22:22;;;;;;;5.78;1.50;;;;;;;12.56;52.32;101289.50;4820845;28;120516;-90
2022/04/03 12:24:52;;;;;;;3.90;1.40;;;;;;;12.09;53.70;101246.38;4820597;28;121666;-92
2022/04/03 12:27:33;;;;;;;5.55;1.40;;;;;;;11.95;53.75;101219.38;4852733;28;120476;-92
2022/04/03 12:29:59;;;;;;;6.45;1.45;;;;;;;11.92;53.72;101223.00;4810790;28;120044;-90
2022/04/03 12:32:28;;;;;;;4.57;1.55;;;;;;;12.25;55.66;101281.91;4821294;28;123856;-91
2022/04/03 12:34:55;;;;;;;5.43;1.52;;;;;;;11.84;57.25;101214.25;4806363;28;120039;-92
2022/04/03 12:37:21;;;;;;;4.18;1.65;;;;;;;11.76;54.96;101212.16;4820799;28;122448;-91
2022/04/03 12:40:05;;;;;;;4.68;1.50;;;;;;;11.85;54.94;101237.00;4805376;28;122015;-91
2022/04/03 12:42:46;;;;;;;7.05;1.30;;;;;;;11.97;55.66;101258.94;4822850;28;119515;-91
2022/04/03 12:45:12;;;;;;;4.40;1.67;;;;;;;11.98;56.04;101248.72;4820749;28;120910;-90
2022/04/03 12:48:02;;;;;;;5.50;1.60;;;;;;;11.84;57.03;101217.00;4806855;28;122574;-91
2022/04/03 12:50:46;;;;;;;7.07;1.60;;;;;;;12.21;57.48;101240.03;4833479;28;119475;-91
2022/04/03 12:53:14;;;;;;;6.35;1.58;;;;;;;12.15;56.36;101208.81;4823745;28;120919;-92
2022/04/03 12:56:03;;;;;;;5.95;1.80;;;;;;;12.19;55.55;101214.97;4819630;28;121297;-92
2022/04/03 12:58:42;;;;;;;6.60;1.60;;;;;;;12.19;55.48;101216.94;4806305;28;121981;-92
2022/04/03 13:01:16;;;;;;;6.35;1.70;;;;;;;12.06;55.81;101228.00;4818826;28;123154;-92
2022/04/03 13:03:47;;;;;;;6.10;1.50;;;;;;;11.60;56.39;101172.66;4820543;28;120262;-92
2022/04/03 13:06:25;;;;;;;4.70;1.40;;;;;;;11.96;57.71;101246.41;4818284;28;121978;-90
2022/04/03 13:08:58;;;;;;;3.38;1.33;;;;;;;11.68;57.10;101203.38;4817459;28;121929;-91
2022/04/03 13:11:45;;;;;;;7.85;1.65;;;;;;;11.73;57.56;101210.28;4819243;28;119496;-92
2022/04/03 13:14:35;;;;;;;4.80;1.63;;;;;;;11.56;58.14;101180.22;4816288;28;122406;-91
2022/04/03 13:17:22;;;;;;;3.50;1.33;;;;;;;11.41;56.57;101156.44;4806288;28;121694;-92
2022/04/03 13:19:55;;;;;;;5.57;1.50;;;;;;;11.43;56.33;101160.28;4740247;29;121439;-91
2022/04/03 13:22:35;;;;;;;4.57;1.73;;;;;;;11.79;57.13;101195.56;4756720;29;121279;-93
2022/04/03 13:25:18;;;;;;;6.60;2.15;;;;;;;12.01;57.29;101194.81;4724910;29;119990;-91
2022/04/03 13:27:54;;;;;;;5.82;1.48;;;;;;;11.90;56.05;101132.75;4743921;29;121377;-94
2022/04/03 13:30:20;;;;;;;4.35;1.63;;;;;;;12.11;54.17;101153.19;4756081;29;120176;-91
2022/04/03 13:32:45;;;;;;;7.75;1.48;;;;;;;12.40;54.84;101187.88;4727599;29;119800;-91
2022/04/03 13:35:16;;;;;;;5.40;1.65;;;;;;;12.45;53.09;101165.28;4758655;29;120918;-91
2022/04/03 13:37:45;;;;;;;8.75;1.67;;;;;;;12.31;51.92;101149.34;4738447;29;121844;-91
2022/04/03 13:40:13;;;;;;;4.10;1.58;;;;;;;12.52;52.67;101165.00;4759506;29;120355;-90
2022/04/03 13:42:38;;;;;;;6.25;1.52;;;;;;;12.26;52.03;101126.69;4739634;29;122781;-93
2022/04/03 13:45:16;;;;;;;6.28;1.38;;;;;;;12.31;51.86;101127.34;4759371;29;119579;-92
2022/04/03 13:47:44;;;;;;;4.50;1.50;;;;;;;12.50;50.13;101156.44;4743722;29;122189;-91
2022/04/03 13:50:10;;;;;;;6.38;1.40;;;;;;;12.46;50.33;101172.31;4743931;29;122756;-90
2022/04/03 13:52:36;;;;;;;3.65;1.10;;;;;;;12.18;51.10;101135.66;4715198;29;121377;-93
2022/04/03 13:55:08;;;;;;;3.95;1.30;;;;;;;12.35;51.21;101153.47;4747629;29;121996;-92
2022/04/03 13:57:33;;;;;;;4.93;1.30;;;;;;;12.57;51.79;101191.97;4823247;28;123425;-91
2022/04/03 14:00:14;;;;;;;5.28;1.60;;;;;;;12.21;52.96;101141.03;4814165;28;121050;-92
2022/04/03 14:02:44;;;;;;;6.28;1.25;;;;;;;12.44;52.57;101163.75;4822542;28;121265;-91
2022/04/03 14:05:13;;;;;;;7.60;1.60;;;;;;;12.50;51.07;101172.94;4825373;28;119595;-91
2022/04/03 14:07:41;;;;;;;4.10;1.50;;;;;;;12.35;50.05;101152.72;4824197;28;122289;-90
2022/04/03 14:10:17;;;;;;;7.15;1.77;;;;;;;12.57;50.03;101181.72;4826696;28;123128;-91
2022/04/03 14:12:42;;;;;;;4.95;2.00;;;;;;;12.41;50.05;101173.69;4813804;28;119823;-91
2022/04/03 14:15:48;;;;;;;5.93;1.58;;;;;;;12.30;49.71;101143.03;4848498;28;119931;-91
2022/04/03 14:18:27;;;;;;;;;;;;;;;;;;;;;
2022/04/03 14:21:00;;;;;;;7.68;1.70;;;;;;;12.18;49.09;101158.41;4825964;28;119823;-91
2022/04/03 14:23:32;;;;;;;5.28;1.63;;;;;;;12.07;49.54;101146.28;4806397;28;122668;-93
2022/04/03 14:26:03;;;;;;;8.13;1.98;;;;;;;11.92;50.67;101113.06;4820897;28;120428;-90
2022/04/03 14:28:39;;;;;;;6.95;1.95;;;;;;;12.15;50.65;101125.56;4823545;28;121928;-93
2022/04/03 14:31:15;;;;;;;10.18;1.95;;;;;;;12.20;49.59;101106.47;4829116;28;122608;-92
2022/04/03 14:33:41;;;;;;;6.80;1.75;;;;;;;12.63;48.79;101173.63;4829309;28;119457;-92
2022/04/03 14:36:10;;;;;;;5.45;1.60;;;;;;;12.51;49.38;101144.22;4838758;28;121482;-95
2022/04/03 14:38:44;;;;;;;9.15;1.80;;;;;;;12.41;48.89;101137.91;4817835;28;121780;-90
2022/04/03 14:41:17;;;;;;;7.93;1.88;;;;;;;12.26;49.38;101129.44;4827361;28;119828;-90
2022/04/03 14:43:50;;;;;;;7.88;2.00;;;;;;;12.12;49.65;101120.97;4822174;28;121938;-93
2022/04/03 14:46:18;;;;;;;6.07;1.40;;;;;;;11.92;50.91;101135.03;4813565;28;122526;-93
2022/04/03 14:48:46;;;;;;;6.80;1.60;;;;;;;11.87;51.94;101141.88;4831323;28;120714;-91
2022/04/03 14:51:14;;;;;;;8.75;2.13;;;;;;;11.73;52.97;101149.84;4817405;28;121677;-90
2022/04/03 14:53:40;;;;;;;8.95;2.10;;;;;;;11.51;53.45;101160.78;4826212;28;119428;-91
2022/04/03 14:56:05;;;;;;;7.20;2.05;;;;;;;11.42;53.85;101153.25;4824964;28;120633;-90
2022/04/03 14:58:34;;;;;;;10.25;2.55;;;;;;;11.21;54.48;101156.72;4826105;28;123367;-91
2022/04/03 15:00:59;;;;;;;7.05;2.08;;;;;;;11.06;55.03;101148.16;4809270;28;121188;-90
2022/04/03 15:03:32;;;;;;;5.53;1.95;;;;;;;10.98;55.63;101158.63;4826073;28;121748;-92
2022/04/03 15:05:58;;;;;;;5.57;1.50;;;;;;;10.73;55.62;101129.22;4825842;28;121097;-89
2022/04/03 15:08:23;;;;;;;5.68;1.98;;;;;;;10.77;56.58;101146.34;4829678;28;119558;-89
2022/04/03 15:10:58;;;;;;;6.13;2.15;;;;;;;10.66;56.93;101126.72;4827489;28;123226;-90
2022/04/03 15:13:26;;;;;;;;;;;;;;;10.92;56.17;101173.34;4827092;28;120174;-90
2022/04/03 15:15:54;;;;;;;5.22;1.52;;;;;;;10.61;56.37;101145.69;4810270;28;121701;-90
2022/04/03 15:18:23;;;;;;;7.75;2.90;;;;;;;10.69;56.80;101169.72;4810591;28;121779;-90
2022/04/03 15:20:59;;;;;;;6.82;2.42;;;;;;;10.45;57.54;101147.34;4811320;28;119800;-90
2022/04/03 15:23:27;;;;;;;8.57;2.33;;;;;;;10.29;57.54;101133.69;4805540;28;121327;-90
2022/04/03 15:26:05;;;;;;;11.25;3.35;;;;;;;10.16;58.42;101089.00;4813475;28;122745;-90
2022/04/03 15:28:35;;;;;;;7.72;2.50;;;;;;;10.31;58.32;101114.84;4831843;28;118560;-90
2022/04/03 15:31:04;;;;;;;7.75;1.98;;;;;;;10.13;58.69;101076.19;4834298;28;121875;-90
2022/04/03 15:33:31;;;;;;;6.10;1.98;;;;;;;10.15;58.78;101076.50;4816933;28;118932;-90
2022/04/03 15:35:59;;;;;;;9.00;2.45;;;;;;;10.74;59.56;101138.22;4825715;28;122106;-91
2022/04/03 15:38:34;;;;;;;6.47;2.42;;;;;;;10.71;59.25;101122.63;4812621;28;122927;-90
2022/04/03 15:41:01;;;;;;;5.75;2.30;;;;;;;10.85;59.33;101132.38;4826599;28;118568;-91
2022/04/03 15:43:27;;;;;;;8.07;2.50;;;;;;;10.61;58.82;101090.81;4832439;28;121452;-90
2022/04/03 15:45:55;;;;;;;5.80;2.30;;;;;;;10.63;59.15;101071.94;4827539;28;121917;-90
2022/04/03 15:48:21;;;;;;;12.00;2.53;;;;;;;11.00;58.37;101117.75;4813894;28;119509;-90
2022/04/03 15:50:47;;;;;;;8.30;2.55;;;;;;;10.82;59.12;101072.91;4795790;29;122013;-90
2022/04/03 15:53:13;;;;;;;9.75;2.63;;;;;;;10.95;57.61;101081.88;4807621;28;119814;-91
2022/04/03 15:55:38;;;;;;;10.48;2.53;;;;;;;10.92;57.49;101078.03;4832242;28;121734;-90
2022/04/03 15:58:10;;;;;;;8.73;2.55;;;;;;;11.07;56.85;101105.78;4831748;28;121938;-91
2022/04/03 16:00:43;;;;;;;7.38;2.20;;;;;;;10.80;56.95;101067.09;4823286;29;119535;-91
2022/04/03 16:03:11;;;;;;;10.13;2.45;;;;;;;10.78;56.46;101064.78;4801330;29;121523;-90
2022/04/03 16:05:36;;;;;;;9.10;2.17;;;;;;;10.81;56.91;101061.16;4809025;28;123183;-90
2022/04/03 16:08:20;;;;;;;12.63;2.50;;;;;;;10.89;56.66;101081.69;4827449;28;119482;-90
2022/04/03 16:10:52;;;;;;;11.82;2.53;;;;;;;10.89;56.37;101081.69;4801470;28;122092;-93
2022/04/03 16:13:22;;;;;;;16.80;2.72;;;;;;;10.99;56.60;101077.81;4833298;28;121803;-90
2022/04/03 16:15:57;;;;;;;9.02;2.65;;;;;;;10.93;56.37;101065.09;4809093;28;121696;-88
2022/04/03 16:18:24;;;;;;;17.77;3.55;;;;;;;11.16;55.92;101075.69;4808361;28;123834;-92
2022/04/03 16:20:53;;;;;;;12.80;2.63;;;;;;;10.94;55.93;101048.19;4824057;28;119759;-91
2022/04/03 16:23:20;;;;;;;10.13;2.40;;;;;;;11.14;56.93;101063.59;4826279;28;121971;-90
2022/04/03 16:25:46;;;;;;;7.78;2.70;;;;;;;11.33;56.19;101095.47;4817915;28;122542;-90
2022/04/03 16:28:15;;;;;;;8.65;2.53;;;;;;;10.83;55.85;101022.28;4810261;28;119748;-90
2022/04/03 16:30:48;;;;;;;15.60;2.90;;;;;;;11.34;55.93;101095.03;4824615;28;120859;-91
2022/04/03 16:33:14;;;;;;;12.57;2.90;;;;;;;11.06;56.08;101044.59;4808777;28;122742;-91
2022/04/03 16:35:40;;;;;;;10.73;3.08;;;;;;;11.06;56.04;101043.84;4814559;28;119354;-91
2022/04/03 16:38:17;;;;;;;;;;;;;;;;;;;;;
2022/04/03 16:40:55;;;;;;;9.88;2.78;;;;;;;10.90;56.93;101011.09;4840418;28;119789;-90
2022/04/03 16:43:30;;;;;;;9.77;2.60;;;;;;;11.22;55.64;101064.88;4841231;28;120789;-90
2022/04/03 16:46:01;;;;;;;8.65;3.28;;;;;;;11.02;56.41;101026.72;4803952;29;123208;-90
2022/04/03 16:48:29;;;;;;;13.77;3.30;;;;;;;11.16;56.09;101045.47;4825212;28;120506;-93
2022/04/03 16:51:00;;;;;;;14.35;3.70;;;;;;;11.29;55.26;101051.66;4825183;28;121861;-90
2022/04/03 16:53:31;;;;;;;7.45;2.40;;;;;;;11.06;56.26;101011.66;4823893;28;122697;-90
2022/04/03 16:56:04;;;;;;;9.07;3.08;;;;;;;11.29;55.31;101053.66;4826667;28;119532;-92
2022/04/03 16:58:49;;;;;;;7.20;2.20;;;;;;;11.26;55.07;101047.06;4828247;28;121703;-91
2022/04/03 17:01:15;;;;;;;8.63;2.60;;;;;;;10.96;54.88;101007.31;4824582;28;119518;-90
2022/04/03 17:03:41;;;;;;;6.53;2.30;;;;;;;11.41;55.12;101076.78;4809434;28;121935;-90
2022/04/03 17:06:14;;;;;;;12.13;2.80;;;;;;;10.86;54.81;100997.47;4808371;28;122902;-92
2022/04/03 17:08:42;;;;;;;10.65;2.80;;;;;;;10.86;55.31;101004.94;4822335;28;119372;-91
2022/04/03 17:11:08;;;;;;;9.93;2.78;;;;;;;11.08;55.10;101055.91;4810132;28;120524;-91
2022/04/03 17:13:34;;;;;;;9.15;3.28;;;;;;;10.92;56.08;101042.38;4821813;28;121479;-91
2022/04/03 17:16:00;;;;;;;12.85;3.88;;;;;;;10.77;56.10;101016.59;4806570;28;119567;-90
2022/04/03 17:18:29;;;;;;;12.48;3.58;;;;;;;10.70;56.79;101030.56;4820122;28;121214;-91
2022/04/03 17:20:55;;;;;;;11.38;3.55;;;;;;;10.58;57.34;101012.91;4824532;28;121775;-88
2022/04/03 17:23:23;;;;;;;15.32;3.35;;;;;;;10.70;57.44;101038.78;4833396;28;122091;-92
2022/04/03 17:25:49;;;;;;;10.07;4.20;;;;;;;10.60;56.89;101040.66;4818064;28;121978;-91
2022/04/03 17:28:15;;;;;;;11.27;3.17;;;;;;;10.78;57.32;101086.72;4819522;28;120767;-90
2022/04/03 17:30:41;;;;;;;8.43;3.42;;;;;;;10.66;57.75;101079.31;4818318;28;122772;-90
2022/04/03 17:33:09;;;;;;;9.15;4.00;;;;;;;10.31;58.35;101056.50;4808943;28;121746;-89
2022/04/03 17:35:34;;;;;;;11.20;3.65;;;;;;;10.39;59.32;101079.72;4821278;28;118509;-88
2022/04/03 17:54:05;;;;;;;10.60;3.42;;;;;;;9.61;61.18;100992.38;4977531;23;119984;-88
2022/04/03 18:08:56;;;;;;;7.82;2.92;;;;;;;9.89;62.38;101039.31;5385436;23;120083;-85
2022/04/03 18:11:24;;;;;;;20.08;3.88;;;;;;;9.88;61.97;101043.28;4799316;29;124059;-85
2022/04/03 18:13:50;;;;;;;7.93;2.95;;;;;;;9.90;61.65;101030.66;4800362;29;120511;-86
2022/04/03 18:16:18;;;;;;;10.38;3.33;;;;;;;9.93;61.71;101037.25;4802303;28;122268;-82
2022/04/03 18:18:44;;;;;;;12.10;3.72;;;;;;;9.97;62.00;101037.94;4816824;29;123278;-81
2022/04/03 18:21:10;;;;;;;10.23;3.50;;;;;;;9.96;62.03;101039.13;4816362;29;119764;-82
2022/04/03 18:23:37;;;;;;;11.07;3.55;;;;;;;9.93;62.20;101026.28;4800912;29;121607;-82
2022/04/03 18:26:03;;;;;;;14.95;3.70;;;;;;;10.00;63.25;101037.81;4816833;29;123015;-82
2022/04/03 18:28:30;;;;;;;10.18;3.40;;;;;;;9.94;63.45;101023.13;4833467;28;119454;-82
2022/04/03 18:31:04;;;;;;;9.50;2.97;;;;;;;9.91;62.82;101015.00;4801376;29;123113;-83
2022/04/03 18:33:30;;;;;;;9.80;3.20;;;;;;;10.06;63.42;101030.56;4801850;29;121094;-82
2022/04/03 18:36:00;;;;;;;12.77;3.38;;;;;;;10.02;62.27;101015.44;4816272;29;121585;-82
2022/04/03 18:38:31;;;;;;;9.00;3.55;;;;;;;10.06;62.21;101024.31;4816968;29;123034;-82
2022/04/03 18:40:57;;;;;;;13.13;3.92;;;;;;;10.02;62.80;101009.97;4814049;29;121479;-84
2022/04/03 18:43:24;;;;;;;10.77;3.30;;;;;;;10.12;61.99;101019.81;4830743;29;119696;-83
2022/04/03 18:45:55;;;;;;;13.35;3.60;;;;;;;10.16;63.21;101007.53;4813913;29;123498;-84
2022/04/03 18:48:20;;;;;;;10.50;3.58;;;;;;;10.22;62.98;101031.72;4813234;29;119940;-83
2022/04/03 18:50:46;;;;;;;9.73;3.17;;;;;;;10.01;62.48;100987.28;4814547;29;122013;-83
2022/04/03 18:53:13;;;;;;;16.70;4.38;;;;;;;10.13;62.76;100996.69;4819222;29;123500;-84
2022/04/03 18:55:42;;;;;;;11.52;3.42;;;;;;;10.26;63.15;101000.25;4831210;28;119870;-84
2022/04/03 18:58:15;;;;;;;11.68;3.03;;;;;;;10.38;63.06;101007.66;4813749;29;123103;-85
2022/04/03 19:00:40;;;;;;;13.13;3.53;;;;;;;10.43;63.62;101009.88;4833282;29;120057;-84